CheckWX is a tool to help pilots better visualize weather data.  It is not intended as a substitute for an official pre-flight weather briefing.

02:45:49 UTC

KMFD TAF
Mansfield Lahm Regional Airport
Mansfield, Ohio, USA
KMFD 252320Z 2600/2624 10006KT P6SM BKN200 FM260600 13008KT P6SM SCT250 FM261800 15011KT P6SM OVC035 FM262000 15010KT P6SM OVC025 FM262200 15009KT 6SM -SHRA OVC010

Aug-26@
00:00 UTC

Aug-26 @ 00:00 UTC

Aug-26@
06:00 UTC

Aug-26 @ 06:00 UTC

KMFD 252320Z 2600/2624 10006KT P6SM BKN200
Wind
  • 100° at 6 KTS
Cloud Levels
  • Broken at 20,000' AGL

Aug-26@
06:00 UTC

Aug-26 @ 06:00 UTC

Aug-26@
18:00 UTC

Aug-26 @ 18:00 UTC

FM260600 13008KT P6SM SCT250

From

From Standard forecast or significant change

Wind
  • 130° at 8 KTS
Cloud Levels
  • Scattered at 25,000' AGL

Aug-26@
18:00 UTC

Aug-26 @ 18:00 UTC

Aug-26@
20:00 UTC

Aug-26 @ 20:00 UTC

FM261800 15011KT P6SM OVC035

From

From Standard forecast or significant change

Wind
  • 150° at 11 KTS
Cloud Levels
  • Overcast at 3,500' AGL

Aug-26@
20:00 UTC

Aug-26 @ 20:00 UTC

Aug-26@
22:00 UTC

Aug-26 @ 22:00 UTC

FM262000 15010KT P6SM OVC025

From

From Standard forecast or significant change

Wind
  • 150° at 10 KTS
Cloud Levels
  • Overcast at 2,500' AGL

Aug-26@
22:00 UTC

Aug-26 @ 22:00 UTC

Aug-27@
00:00 UTC

Aug-27 @ 00:00 UTC

FM262200 15009KT 6SM -SHRA OVC010

From

From Standard forecast or significant change

Wind
  • 150° at 9 KTS
Conditions
Light Rain
Cloud Levels
  • Overcast at 1,000' AGL